Time;durP1;ratioP1;P1;durP2;ratioP2;P2;SDS_P1;SDS_P2;PMS_P1;PMS_P2;Temp;Humidity;BMP_temperature;BMP_pressure;BME280_temperature;BME280_humidity;BME280_pressure;Samples;Min_cycle;Max_cycle;Signal;HPM_P1;HPM_P2
2022/06/28 00:00:22;;;;;;;8.93;8.00;;;16.20;1.00;;;;;;4969821;28;20210;-62
2022/06/28 00:02:48;;;;;;;10.53;8.37;;;16.20;1.00;;;;;;4967142;28;20205;-62
2022/06/28 00:05:15;;;;;;;9.67;8.03;;;16.20;99.90;;;;;;4967292;28;20735;-62
2022/06/28 00:07:41;;;;;;;11.83;8.80;;;16.30;99.90;;;;;;4971943;28;20428;-62
2022/06/28 00:10:08;;;;;;;7.87;7.07;;;16.20;99.90;;;;;;4972155;28;20499;-62
2022/06/28 00:12:34;;;;;;;10.47;8.53;;;16.30;99.90;;;;;;4964150;28;20491;-62
2022/06/28 00:17:44;;;;;;;12.90;7.33;;;16.30;85.80;;;;;;4971328;28;20415;-62
2022/06/28 00:20:10;;;;;;;10.27;9.00;;;16.30;1.00;;;;;;4971239;28;20432;-62
2022/06/28 00:22:36;;;;;;;10.37;9.37;;;16.50;1.00;;;;;;4969075;28;20201;-62
2022/06/28 00:25:03;;;;;;;6.93;5.97;;;16.60;11.60;;;;;;4972045;28;20643;-62
2022/06/28 00:27:28;;;;;;;9.53;8.63;;;16.70;1.00;;;;;;4971844;28;20224;-62
2022/06/28 00:29:54;;;;;;;8.33;6.33;;;16.90;1.00;;;;;;4970199;28;20429;-61
2022/06/28 00:32:19;;;;;;;10.33;6.57;;;17.00;99.90;;;;;;4971875;28;20232;-62
2022/06/28 00:34:47;;;;;;;6.87;6.23;;;17.00;99.90;;;;;;4962024;28;20196;-62
2022/06/28 00:37:13;;;;;;;7.87;7.00;;;17.10;96.70;;;;;;4953367;28;20201;-62
2022/06/28 00:39:39;;;;;;;9.27;7.60;;;17.30;1.00;;;;;;4948375;29;20413;-63
2022/06/28 00:42:07;;;;;;;9.57;7.60;;;17.40;1.00;;;;;;4961467;28;20432;-62
2022/06/28 00:44:32;;;;;;;10.30;6.43;;;17.40;1.00;;;;;;4971495;28;20887;-63
2022/06/28 00:46:58;;;;;;;11.70;8.17;;;17.40;1.00;;;;;;4974217;28;20467;-62
2022/06/28 00:49:25;;;;;;;10.73;8.03;;;17.30;1.00;;;;;;4973308;28;20197;-61
2022/06/28 00:51:50;;;;;;;13.80;7.40;;;17.30;1.00;;;;;;4948321;28;20593;-62
2022/06/28 00:54:16;;;;;;;9.23;6.27;;;17.30;1.00;;;;;;4975507;28;20439;-62
2022/06/28 00:56:42;;;;;;;7.00;5.57;;;17.30;1.00;;;;;;4975579;28;20340;-62
2022/06/28 00:59:07;;;;;;;7.23;6.50;;;17.50;1.00;;;;;;4971939;28;20189;-62
2022/06/28 01:01:33;;;;;;;11.37;7.70;;;17.60;99.90;;;;;;4975528;28;20205;-62
2022/06/28 01:03:59;;;;;;;9.80;7.20;;;17.60;99.90;;;;;;4975546;28;20239;-61
2022/06/28 01:06:24;;;;;;;10.83;6.80;;;17.60;99.90;;;;;;4972171;28;20596;-62
2022/06/28 01:08:50;;;;;;;9.80;6.23;;;17.70;99.90;;;;;;4969820;28;20251;-61
2022/06/28 01:11:20;;;;;;;13.00;6.10;;;17.70;99.90;;;;;;4975599;28;20242;-62
2022/06/28 01:13:49;;;;;;;8.47;6.23;;;17.60;99.90;;;;;;4975035;28;20864;-62
2022/06/28 01:16:16;;;;;;;11.60;7.83;;;17.50;99.90;;;;;;4975508;28;20462;-62
2022/06/28 01:18:42;;;;;;;13.93;11.20;;;17.50;99.90;;;;;;4972296;28;20433;-61
2022/06/28 01:21:08;;;;;;;14.87;11.20;;;17.40;99.90;;;;;;4969769;28;20929;-62
2022/06/28 01:23:34;;;;;;;10.20;8.60;;;17.30;99.90;;;;;;4975139;28;20714;-62
2022/06/28 01:26:00;;;;;;;12.77;8.97;;;17.20;99.90;;;;;;4972302;28;21037;-62
2022/06/28 01:28:27;;;;;;;18.27;11.33;;;17.30;99.90;;;;;;4975433;28;20429;-62
2022/06/28 01:30:53;;;;;;;13.70;11.27;;;17.20;99.90;;;;;;4963046;28;21024;-62
2022/06/28 01:33:19;;;;;;;18.80;12.90;;;17.20;99.90;;;;;;4974993;28;20491;-62
2022/06/28 01:35:44;;;;;;;16.80;12.30;;;17.00;99.90;;;;;;4974743;28;20982;-62
2022/06/28 01:38:11;;;;;;;23.67;16.63;;;16.90;99.90;;;;;;4975265;28;20181;-62
2022/06/28 01:40:37;;;;;;;16.23;11.87;;;16.70;99.90;;;;;;4971827;28;20658;-62
2022/06/28 01:43:03;;;;;;;14.37;11.10;;;16.50;1.00;;;;;;4961425;28;20431;-62
2022/06/28 01:45:29;;;;;;;24.13;13.17;;;16.40;1.00;;;;;;4957212;28;20471;-61
2022/06/28 01:47:55;;;;;;;24.13;15.10;;;16.40;1.00;;;;;;4960255;28;20449;-62
2022/06/28 01:50:21;;;;;;;21.57;12.83;;;16.40;1.00;;;;;;4950065;28;20460;-62
2022/06/28 01:52:47;;;;;;;25.43;16.77;;;16.30;1.00;;;;;;4960919;28;20608;-62
2022/06/28 01:55:13;;;;;;;18.97;14.40;;;16.30;49.60;;;;;;4969540;28;20228;-62
2022/06/28 01:57:39;;;;;;;23.00;15.80;;;16.40;99.90;;;;;;4973132;28;20433;-62
2022/06/28 02:00:08;;;;;;;22.67;15.03;;;16.50;90.50;;;;;;4969961;28;20260;-61
2022/06/28 02:02:34;;;;;;;17.97;14.10;;;16.50;1.00;;;;;;4968729;28;20424;-62
2022/06/28 02:05:00;;;;;;;17.60;14.27;;;16.60;1.00;;;;;;4974434;28;20535;-62
2022/06/28 02:07:26;;;;;;;18.07;13.87;;;16.60;1.00;;;;;;4974141;28;21023;-62
2022/06/28 02:09:52;;;;;;;20.47;10.67;;;16.70;1.00;;;;;;4968264;28;20264;-63
2022/06/28 02:12:17;;;;;;;13.67;10.80;;;16.70;1.00;;;;;;4964213;28;20512;-62
2022/06/28 02:14:43;;;;;;;15.90;12.87;;;16.70;1.00;;;;;;4957509;28;20188;-63
2022/06/28 02:17:09;;;;;;;18.67;13.83;;;16.70;1.00;;;;;;4959956;28;20189;-62
2022/06/28 02:19:35;;;;;;;13.53;11.03;;;16.60;1.00;;;;;;4973957;28;20189;-62
2022/06/28 02:22:00;;;;;;;14.70;11.00;;;16.60;1.00;;;;;;4970072;28;20272;-62
2022/06/28 02:24:26;;;;;;;14.10;12.60;;;16.70;1.00;;;;;;4974115;28;20185;-62
2022/06/28 02:26:52;;;;;;;18.23;15.67;;;16.70;1.00;;;;;;4971054;28;20213;-63
2022/06/28 02:29:17;;;;;;;19.30;12.67;;;16.50;1.00;;;;;;4962375;28;20244;-64
2022/06/28 02:31:43;;;;;;;18.40;15.00;;;16.40;1.00;;;;;;4963881;28;20208;-62
2022/06/28 02:40:21;;;;;;;12.70;10.43;;;16.40;1.00;;;;;;4968378;28;20256;-62
2022/06/28 02:42:22;;;;;;;15.47;12.30;;;16.60;1.00;;;;;;4972328;28;20435;-62
2022/06/28 02:44:47;;;;;;;19.63;12.07;;;16.60;1.00;;;;;;4968856;28;20441;-62
2022/06/28 02:47:13;;;;;;;11.47;9.60;;;16.60;1.00;;;;;;4969887;28;20215;-62
2022/06/28 02:49:39;;;;;;;9.60;8.60;;;16.60;1.00;;;;;;4959431;28;20185;-62
2022/06/28 02:52:04;;;;;;;15.70;10.50;;;16.70;1.00;;;;;;4962781;28;20221;-62
2022/06/28 02:54:30;;;;;;;16.10;10.27;;;16.80;1.00;;;;;;4966291;28;20199;-62
2022/06/28 02:56:56;;;;;;;11.80;10.10;;;16.90;1.00;;;;;;4970879;28;20257;-62
2022/06/28 02:59:21;;;;;;;15.67;11.03;;;16.90;1.00;;;;;;4966724;28;20651;-62
2022/06/28 03:01:47;;;;;;;7.87;7.07;;;17.00;99.90;;;;;;4970601;28;20196;-62
2022/06/28 03:04:12;;;;;;;11.30;10.10;;;17.00;1.00;;;;;;4966757;28;20224;-62
2022/06/28 03:06:38;;;;;;;13.17;9.77;;;17.20;99.90;;;;;;4973138;28;20208;-62
2022/06/28 03:09:04;;;;;;;8.80;6.70;;;17.20;99.90;;;;;;4948880;28;20623;-62
2022/06/28 03:11:30;;;;;;;12.77;9.67;;;17.20;99.90;;;;;;4971345;28;20271;-62
2022/06/28 03:13:56;;;;;;;13.83;8.77;;;17.30;99.90;;;;;;4967207;28;20563;-62
2022/06/28 03:16:22;;;;;;;12.23;7.20;;;17.10;99.90;;;;;;4973185;28;20296;-62
2022/06/28 03:18:48;;;;;;;9.60;8.60;;;17.00;99.90;;;;;;4963440;28;20463;-63
2022/06/28 03:21:13;;;;;;;10.37;7.93;;;16.90;99.90;;;;;;4969866;28;20631;-63
2022/06/28 03:23:39;;;;;;;9.17;7.47;;;16.80;99.90;;;;;;4961152;28;20557;-62
2022/06/28 03:26:05;;;;;;;11.53;8.83;;;16.80;99.90;;;;;;4970269;28;20224;-62
2022/06/28 03:28:30;;;;;;;13.40;10.03;;;16.70;99.90;;;;;;4959191;28;20269;-61
2022/06/28 03:30:56;;;;;;;11.83;8.60;;;16.60;99.90;;;;;;4972228;28;20195;-62
2022/06/28 03:33:21;;;;;;;12.90;8.43;;;16.40;1.00;;;;;;4965060;28;20189;-63
2022/06/28 03:35:47;;;;;;;10.07;7.77;;;16.40;1.00;;;;;;4972184;28;20196;-63
2022/06/28 03:38:13;;;;;;;10.73;8.03;;;16.30;1.00;;;;;;4967010;28;20193;-63
2022/06/28 03:40:39;;;;;;;7.30;6.40;;;16.40;1.00;;;;;;4970364;28;20272;-63
2022/06/28 03:43:06;;;;;;;11.33;6.87;;;16.50;1.00;;;;;;4962428;28;20200;-63
2022/06/28 03:45:31;;;;;;;8.93;6.30;;;16.60;1.00;;;;;;4972305;28;20192;-62
2022/06/28 03:47:57;;;;;;;9.57;8.50;;;16.70;1.00;;;;;;4963983;28;20444;-63
2022/06/28 03:50:23;;;;;;;7.10;6.40;;;16.70;1.00;;;;;;4953528;28;20196;-63
2022/06/28 03:52:49;;;;;;;8.80;7.90;;;16.70;1.00;;;;;;4963555;28;20197;-62
2022/06/28 03:55:14;;;;;;;9.13;7.23;;;16.80;1.00;;;;;;4963030;28;20225;-63
2022/06/28 03:57:40;;;;;;;12.00;9.60;;;16.80;1.00;;;;;;4964279;28;20193;-63
2022/06/28 04:00:06;;;;;;;11.77;8.97;;;16.80;1.00;;;;;;4964769;28;20200;-63
2022/06/28 04:02:32;;;;;;;8.73;7.83;;;16.80;1.00;;;;;;4964381;28;20292;-62
2022/06/28 04:04:57;;;;;;;10.77;9.10;;;16.90;1.00;;;;;;4964249;28;20465;-63
2022/06/28 04:07:23;;;;;;;9.90;7.37;;;17.10;99.90;;;;;;4971365;28;20212;-62
2022/06/28 04:09:49;;;;;;;10.90;8.57;;;17.20;99.90;;;;;;4967429;28;20201;-64
2022/06/28 04:12:16;;;;;;;8.83;7.53;;;17.30;99.90;;;;;;4966988;28;20173;-62
2022/06/28 04:14:42;;;;;;;14.33;11.07;;;17.40;99.90;;;;;;4967877;28;20192;-62
2022/06/28 04:17:07;;;;;;;19.60;12.87;;;17.50;99.90;;;;;;4969057;28;20801;-62
2022/06/28 04:19:33;;;;;;;17.30;14.30;;;17.40;99.90;;;;;;4968983;28;20192;-62
2022/06/28 04:21:59;;;;;;;12.87;10.90;;;17.30;99.90;;;;;;4966377;28;20337;-63
2022/06/28 04:24:25;;;;;;;17.40;12.10;;;17.20;99.90;;;;;;4967239;28;20202;-63
2022/06/28 04:26:51;;;;;;;26.17;16.43;;;17.20;99.90;;;;;;4971571;28;20563;-62
2022/06/28 04:29:17;;;;;;;15.90;12.33;;;17.10;99.90;;;;;;4967333;28;20189;-63
2022/06/28 04:31:42;;;;;;;19.50;14.60;;;17.10;1.00;;;;;;4969424;28;20432;-62
2022/06/28 04:34:08;;;;;;;27.33;16.90;;;17.10;1.00;;;;;;4965238;28;20549;-63
2022/06/28 04:36:34;;;;;;;24.53;14.10;;;17.00;1.00;;;;;;4971787;28;20189;-62
2022/06/28 04:38:59;;;;;;;24.60;16.70;;;16.90;1.00;;;;;;4967804;28;20207;-61
2022/06/28 04:41:25;;;;;;;20.57;14.30;;;16.90;1.00;;;;;;4969059;28;20237;-62
2022/06/28 04:43:53;;;;;;;19.50;16.30;;;16.80;1.00;;;;;;4968252;28;20203;-62
2022/06/28 04:46:22;;;;;;;22.67;15.40;;;16.70;1.00;;;;;;4971665;28;20221;-62
2022/06/28 04:48:49;;;;;;;22.90;18.00;;;16.70;1.00;;;;;;4967054;28;20445;-62
2022/06/28 04:51:15;;;;;;;23.07;17.90;;;16.80;1.00;;;;;;4965460;28;20539;-62
2022/06/28 04:53:43;;;;;;;20.87;15.23;;;16.80;1.00;;;;;;4962440;28;20493;-62
2022/06/28 04:56:10;;;;;;;17.77;13.50;;;17.00;1.00;;;;;;4969955;28;20477;-62
2022/06/28 04:58:36;;;;;;;19.07;14.77;;;17.10;1.00;;;;;;4963372;28;20530;-62
2022/06/28 05:01:02;;;;;;;23.50;16.80;;;17.10;1.00;;;;;;4945485;28;20602;-65
2022/06/28 05:03:28;;;;;;;21.73;16.30;;;17.20;1.00;;;;;;4959963;28;20272;-70
2022/06/28 05:05:56;;;;;;;19.53;15.80;;;17.00;1.00;;;;;;4947142;28;20479;-60
2022/06/28 05:08:22;;;;;;;21.90;17.40;;;16.90;1.00;;;;;;4966208;28;20818;-62
2022/06/28 05:10:48;;;;;;;19.17;16.90;;;16.80;1.00;;;;;;4962595;28;20428;-62
2022/06/28 05:13:13;;;;;;;20.90;16.67;;;16.70;1.00;;;;;;4970585;28;20192;-62
2022/06/28 05:15:39;;;;;;;22.27;17.90;;;16.70;1.00;;;;;;4955804;28;20210;-62
2022/06/28 05:18:06;;;;;;;21.30;17.13;;;16.60;1.00;;;;;;4971832;28;20907;-62
2022/06/28 05:20:32;;;;;;;19.30;15.90;;;16.60;1.00;;;;;;4963474;28;20541;-62
2022/06/28 05:22:57;;;;;;;21.60;16.90;;;16.70;1.00;;;;;;4971630;28;20439;-63
2022/06/28 05:25:25;;;;;;;22.73;17.10;;;16.70;1.00;;;;;;4963708;28;20209;-63
2022/06/28 05:27:51;;;;;;;22.33;17.87;;;16.70;1.00;;;;;;4972741;28;20204;-62
2022/06/28 05:30:17;;;;;;;23.67;19.87;;;16.70;1.00;;;;;;4967828;28;20499;-67
2022/06/28 05:32:43;;;;;;;23.20;18.80;;;16.70;1.00;;;;;;4975027;28;20494;-63
2022/06/28 05:35:09;;;;;;;17.03;15.20;;;16.60;1.00;;;;;;4972485;28;20465;-61
2022/06/28 05:37:34;;;;;;;19.60;17.20;;;16.70;1.00;;;;;;4971588;28;20197;-61
2022/06/28 05:40:01;;;;;;;22.37;19.53;;;16.90;1.00;;;;;;4966616;28;20894;-61
2022/06/28 05:42:26;;;;;;;29.83;17.53;;;17.20;1.00;;;;;;4958240;28;20219;-62
2022/06/28 05:44:53;;;;;;;23.53;18.50;;;17.50;1.00;;;;;;4954343;28;20496;-62
2022/06/28 05:47:18;;;;;;;16.93;14.30;;;17.80;99.90;;;;;;4955717;28;20476;-61
2022/06/28 05:49:44;;;;;;;18.20;13.60;;;18.00;99.90;;;;;;4970651;28;20201;-61
2022/06/28 05:52:09;;;;;;;20.70;15.03;;;18.00;99.90;;;;;;4973504;28;20280;-62
2022/06/28 05:54:35;;;;;;;18.03;13.90;;;18.10;99.90;;;;;;4976168;28;20275;-61
2022/06/28 05:57:01;;;;;;;24.13;15.47;;;18.40;99.90;;;;;;4971046;28;20216;-62
2022/06/28 05:59:27;;;;;;;15.53;13.93;;;18.70;99.90;;;;;;4950470;28;20223;-61
2022/06/28 06:01:55;;;;;;;15.33;11.77;;;19.00;99.90;;;;;;4955704;28;20240;-62
2022/06/28 06:04:22;;;;;;;16.37;13.70;;;19.10;99.90;;;;;;4958105;28;21305;-62
2022/06/28 06:06:47;;;;;;;19.40;14.17;;;19.20;99.90;;;;;;4961617;28;20484;-61
2022/06/28 06:09:13;;;;;;;18.30;14.07;;;19.00;99.90;;;;;;4965751;28;20448;-62
2022/06/28 06:11:39;;;;;;;21.50;14.23;;;18.90;99.90;;;;;;4957361;28;20259;-61
2022/06/28 06:14:05;;;;;;;11.07;10.00;;;18.70;99.90;;;;;;4966149;28;20200;-62
2022/06/28 06:16:31;;;;;;;16.17;12.53;;;18.60;99.90;;;;;;4969879;28;20188;-61
2022/06/28 06:18:57;;;;;;;18.07;13.87;;;18.50;99.90;;;;;;4960918;28;20490;-59
2022/06/28 06:21:22;;;;;;;14.13;12.63;;;18.40;99.90;;;;;;4970591;28;20770;-59
2022/06/28 06:23:48;;;;;;;14.37;10.87;;;18.40;99.90;;;;;;4951591;28;20725;-59
2022/06/28 06:26:13;;;;;;;18.60;12.60;;;18.30;99.90;;;;;;4974362;28;20216;-59
2022/06/28 06:28:39;;;;;;;15.67;11.53;;;18.20;99.90;;;;;;4960245;28;20198;-61
2022/06/28 06:31:07;;;;;;;15.20;11.47;;;18.10;99.90;;;;;;4960156;28;20198;-59
2022/06/28 06:33:33;;;;;;;12.13;11.00;;;17.80;99.90;;;;;;4966859;28;20455;-51
2022/06/28 06:35:59;;;;;;;14.00;10.93;;;17.70;99.90;;;;;;4965374;28;20523;-51
2022/06/28 06:38:25;;;;;;;15.43;12.60;;;17.50;99.90;;;;;;4961981;28;20546;-53
2022/06/28 06:40:50;;;;;;;16.20;12.57;;;17.50;99.90;;;;;;4969205;28;20666;-51
2022/06/28 06:43:16;;;;;;;20.37;12.63;;;17.60;99.90;;;;;;4966976;28;20201;-52
2022/06/28 06:45:42;;;;;;;15.97;12.73;;;17.70;99.90;;;;;;4959121;28;20667;-51
2022/06/28 06:48:08;;;;;;;19.70;14.80;;;17.80;99.90;;;;;;4959772;28;20186;-52
2022/06/28 06:50:33;;;;;;;17.03;13.00;;;17.80;99.90;;;;;;4966432;28;20196;-52
2022/06/28 06:53:02;;;;;;;17.87;13.50;;;17.90;99.90;;;;;;4954954;28;20287;-51
2022/06/28 06:55:28;;;;;;;19.43;13.60;;;18.00;99.90;;;;;;4961089;28;20237;-51
2022/06/28 06:57:53;;;;;;;16.77;13.10;;;18.00;99.90;;;;;;4962662;28;20456;-54
2022/06/28 07:00:19;;;;;;;18.17;12.70;;;18.30;99.90;;;;;;4962263;28;20453;-53
2022/06/28 07:02:45;;;;;;;16.60;11.60;;;18.50;99.90;;;;;;4958860;28;20208;-51
2022/06/28 07:05:11;;;;;;;14.93;10.83;;;18.70;99.90;;;;;;4961124;28;20273;-51
2022/06/28 07:07:37;;;;;;;16.60;11.77;;;19.00;99.90;;;;;;4947679;28;20216;-51
2022/06/28 07:10:03;;;;;;;16.90;10.87;;;19.70;99.90;;;;;;4957051;28;20445;-51
2022/06/28 07:12:30;;;;;;;11.87;8.23;;;20.60;99.90;;;;;;4960981;28;20203;-51
2022/06/28 07:14:55;;;;;;;12.70;6.97;;;21.00;99.90;;;;;;4973639;28;20428;-51
2022/06/28 07:17:21;;;;;;;9.77;6.90;;;20.70;99.90;;;;;;4960381;28;20455;-50
2022/06/28 07:19:47;;;;;;;9.70;7.67;;;20.30;99.90;;;;;;4961812;28;20646;-51
2022/06/28 07:22:13;;;;;;;11.83;7.70;;;19.90;99.90;;;;;;4955232;28;20193;-51
2022/06/28 07:24:39;;;;;;;14.67;7.80;;;19.90;99.90;;;;;;4968744;28;20443;-51
2022/06/28 07:27:04;;;;;;;10.40;7.30;;;20.40;99.90;;;;;;4961430;28;20474;-51
2022/06/28 07:29:30;;;;;;;10.80;7.47;;;20.70;99.90;;;;;;4956361;28;20289;-51
2022/06/28 07:31:56;;;;;;;10.33;8.37;;;20.70;99.90;;;;;;4966869;28;20187;-51
2022/06/28 07:34:22;;;;;;;12.00;7.73;;;20.80;99.90;;;;;;4969764;28;20217;-51
2022/06/28 07:36:48;;;;;;;14.13;7.87;;;21.10;99.90;;;;;;4962837;28;20444;-51
2022/06/28 07:39:14;;;;;;;10.07;6.60;;;21.30;99.90;;;;;;4939758;28;20453;-51
2022/06/28 07:41:39;;;;;;;9.80;5.77;;;21.80;99.90;;;;;;4961411;28;20209;-51
2022/06/28 07:44:05;;;;;;;9.63;6.13;;;21.80;99.90;;;;;;4943355;28;20213;-50
2022/06/28 07:46:32;;;;;;;9.83;5.60;;;21.40;99.90;;;;;;4948929;28;20222;-51
2022/06/28 07:48:57;;;;;;;8.37;5.90;;;20.80;99.90;;;;;;4966231;28;20771;-51
2022/06/28 07:54:07;;;;;;;5.93;4.23;;;21.60;99.90;;;;;;4966491;28;20224;-51
2022/06/28 07:56:33;;;;;;;9.70;3.90;;;22.30;99.90;;;;;;4957635;28;20506;-51
2022/06/28 07:58:59;;;;;;;6.60;4.37;;;22.50;99.90;;;;;;4967989;28;20272;-50
2022/06/28 08:01:24;;;;;;;7.10;3.63;;;22.90;99.90;;;;;;4950107;28;20211;-51
2022/06/28 08:03:50;;;;;;;6.83;3.37;;;23.10;99.90;;;;;;4967164;28;20208;-51
2022/06/28 08:06:16;;;;;;;3.90;3.30;;;23.40;99.90;;;;;;4958055;28;20232;-51
2022/06/28 08:08:41;;;;;;;6.83;3.67;;;23.40;99.90;;;;;;4969127;28;20197;-51
2022/06/28 08:11:09;;;;;;;5.70;4.17;;;23.70;99.90;;;;;;4972774;28;20316;-51
2022/06/28 08:13:35;;;;;;;9.90;3.60;;;23.80;99.90;;;;;;4963707;28;20959;-51
2022/06/28 08:16:01;;;;;;;4.97;2.90;;;24.20;99.90;;;;;;4958722;28;20447;-51
2022/06/28 08:18:27;;;;;;;5.10;3.57;;;24.40;99.90;;;;;;4965634;28;20455;-51
2022/06/28 08:20:53;;;;;;;9.40;3.47;;;24.20;99.90;;;;;;4958509;28;20460;-51
2022/06/28 08:23:18;;;;;;;5.40;3.67;;;23.60;99.90;;;;;;4972059;28;20263;-51
2022/06/28 08:25:46;;;;;;;4.03;3.10;;;22.80;99.90;;;;;;4965286;28;20211;-51
2022/06/28 08:28:13;;;;;;;5.47;3.53;;;22.40;99.90;;;;;;4964412;28;20670;-51
2022/06/28 08:30:40;;;;;;;5.53;3.37;;;22.70;99.90;;;;;;4962697;28;20436;-51
2022/06/28 08:33:07;;;;;;;7.73;2.67;;;22.70;99.90;;;;;;4972091;28;20428;-56
2022/06/28 08:35:34;;;;;;;4.50;3.50;;;22.90;99.90;;;;;;4954199;28;20968;-51
2022/06/28 08:38:05;;;;;;;4.97;2.90;;;23.00;99.90;;;;;;4945731;28;20507;-51
2022/06/28 08:40:32;;;;;;;4.03;2.30;;;22.60;99.90;;;;;;4924810;28;20539;-56
2022/06/28 08:42:59;;;;;;;3.70;2.33;;;22.80;99.90;;;;;;4944064;29;20453;-52
2022/06/28 08:45:25;;;;;;;6.10;5.00;;;23.00;99.90;;;;;;4966483;28;21278;-52
2022/06/28 08:47:53;;;;;;;4.13;2.30;;;22.60;99.90;;;;;;4964706;28;20456;-51
2022/06/28 08:50:33;;;;;;;5.77;1.83;;;22.40;99.90;;;;;;4955868;28;20441;-51
2022/06/28 08:53:05;;;;;;;3.57;1.73;;;23.10;99.90;;;;;;4950471;28;20456;-51
2022/06/28 08:55:33;;;;;;;2.60;1.53;;;23.70;99.90;;;;;;4967643;28;20895;-56
2022/06/28 08:58:00;;;;;;;3.43;1.70;;;24.50;99.90;;;;;;4960716;28;20535;-51
2022/06/28 09:00:27;;;;;;;38.80;2.60;;;25.20;99.90;;;;;;4963672;28;20499;-51
2022/06/28 09:02:53;;;;;;;4.00;1.67;;;25.40;99.90;;;;;;4962867;28;20458;-51
2022/06/28 09:05:24;;;;;;;3.57;1.77;;;25.30;99.90;;;;;;4959802;28;20524;-51
2022/06/28 09:07:51;;;;;;;2.07;1.60;;;25.30;99.90;;;;;;4957816;28;21055;-51
2022/06/28 09:10:17;;;;;;;3.03;2.10;;;25.10;99.90;;;;;;4958591;28;20615;-51
2022/06/28 09:12:43;;;;;;;3.07;1.60;;;25.40;99.90;;;;;;4959923;28;20433;-51
2022/06/28 09:15:09;;;;;;;4.43;2.57;;;25.30;99.90;;;;;;4959448;28;20435;-51
2022/06/28 09:17:35;;;;;;;2.80;1.37;;;24.50;99.90;;;;;;4958112;28;20276;-51
2022/06/28 09:20:03;;;;;;;2.67;1.70;;;24.30;99.90;;;;;;4959947;28;20508;-51
2022/06/28 09:22:37;;;;;;;3.43;1.37;;;24.70;99.90;;;;;;4958985;28;20665;-51
2022/06/28 09:25:06;;;;;;;3.97;1.53;;;25.00;99.90;;;;;;4972497;28;20439;-51
2022/06/28 09:27:37;;;;;;;4.00;1.43;;;25.10;99.90;;;;;;4971962;28;20508;-51
2022/06/28 09:30:06;;;;;;;3.93;1.70;;;24.80;99.90;;;;;;4966627;28;20476;-51
2022/06/28 09:32:34;;;;;;;4.27;1.73;;;24.90;99.90;;;;;;4970270;28;20428;-51
2022/06/28 09:35:10;;;;;;;2.23;1.63;;;24.80;99.90;;;;;;4975023;28;20482;-51
2022/06/28 09:37:45;;;;;;;2.63;1.53;;;24.60;99.90;;;;;;4972926;28;20943;-52
2022/06/28 09:40:13;;;;;;;3.40;1.90;;;24.80;99.90;;;;;;4969231;28;20424;-51
2022/06/28 09:42:40;;;;;;;2.70;1.50;;;25.00;99.90;;;;;;4973429;28;20434;-51
2022/06/28 09:45:07;;;;;;;2.23;1.53;;;25.60;99.90;;;;;;4951513;28;20424;-51
2022/06/28 09:47:32;;;;;;;3.03;1.20;;;25.80;99.90;;;;;;4972011;28;20487;-51
2022/06/28 09:49:59;;;;;;;3.00;1.40;;;25.90;99.90;;;;;;4963193;28;20453;-51
2022/06/28 09:52:28;;;;;;;1.93;1.20;;;25.40;99.90;;;;;;4973618;28;20192;-51
2022/06/28 09:54:55;;;;;;;2.13;1.30;;;24.60;99.90;;;;;;4969730;28;20502;-52
2022/06/28 09:57:21;;;;;;;3.13;1.20;;;24.40;99.90;;;;;;4959765;28;20493;-51
2022/06/28 09:59:49;;;;;;;3.03;1.40;;;23.70;99.90;;;;;;4968554;28;20479;-51
2022/06/28 10:02:17;;;;;;;1.57;1.30;;;23.40;99.90;;;;;;4964753;28;20628;-51
2022/06/28 10:04:46;;;;;;;2.23;1.60;;;23.10;99.90;;;;;;4966416;28;20549;-51
2022/06/28 10:07:13;;;;;;;1.50;1.40;;;22.70;99.90;;;;;;4960465;28;20487;-52
2022/06/28 10:09:38;;;;;;;2.00;1.10;;;22.20;99.90;;;;;;4974463;28;20440;-51
2022/06/28 10:15:01;;;;;;;4.23;1.73;;;22.00;99.90;;;;;;4958612;28;20193;-51
2022/06/28 10:18:01;;;;;;;3.13;1.33;;;22.70;99.90;;;;;;4961021;28;20490;-51
2022/06/28 10:20:33;;;;;;;4.30;1.87;;;24.30;99.90;;;;;;4944376;28;20798;-51
2022/06/28 10:23:23;;;;;;;2.37;1.57;;;25.30;99.90;;;;;;4966132;28;20456;-51
2022/06/28 10:26:11;;;;;;;8.07;1.37;;;25.80;99.90;;;;;;4961960;28;21089;-57
2022/06/28 10:28:45;;;;;;;2.83;1.40;;;26.10;99.90;;;;;;4960050;28;20477;-51
2022/06/28 10:31:25;;;;;;;2.07;1.60;;;26.50;99.90;;;;;;4967389;28;20433;-51
2022/06/28 10:33:53;;;;;;;5.97;1.70;;;26.50;99.90;;;;;;4959707;28;20464;-51
2022/06/28 10:36:21;;;;;;;2.47;1.00;;;26.60;99.90;;;;;;4970687;28;20416;-51
2022/06/28 10:39:08;;;;;;;2.00;1.10;;;27.10;99.90;;;;;;4962665;28;20513;-51
2022/06/28 10:41:38;;;;;;;3.53;1.30;;;27.30;99.90;;;;;;4946047;28;20434;-51
2022/06/28 10:44:15;;;;;;;4.30;1.50;;;27.10;99.90;;;;;;4946049;28;20471;-51
2022/06/28 10:46:42;;;;;;;2.10;1.07;;;26.60;99.90;;;;;;4948098;28;20477;-51
2022/06/28 10:49:10;;;;;;;2.23;1.53;;;26.30;99.90;;;;;;4956967;28;20445;-51
2022/06/28 10:51:41;;;;;;;4.47;1.60;;;26.60;99.90;;;;;;4963845;28;20926;-52
2022/06/28 10:54:10;;;;;;;2.07;1.30;;;27.30;99.90;;;;;;4969367;28;20455;-51
2022/06/28 10:56:46;;;;;;;1.93;1.57;;;27.80;99.90;;;;;;4973359;28;20468;-51
2022/06/28 10:59:17;;;;;;;5.33;1.77;;;27.40;99.90;;;;;;4973178;28;20774;-51
2022/06/28 11:01:46;;;;;;;4.13;1.73;;;26.10;99.90;;;;;;4967312;28;20444;-51
2022/06/28 11:04:23;;;;;;;3.37;1.47;;;25.00;99.90;;;;;;4967321;28;20527;-51
2022/06/28 11:06:57;;;;;;;2.70;1.30;;;24.50;99.90;;;;;;4971566;28;21174;-51
2022/06/28 11:09:53;;;;;;;1.63;1.20;;;25.40;99.90;;;;;;4966090;28;20444;-51
2022/06/28 11:12:19;;;;;;;1.33;1.10;;;26.60;99.90;;;;;;4969533;28;20412;-51
2022/06/28 11:14:57;;;;;;;1.53;1.23;;;28.00;99.90;;;;;;4969506;28;20437;-51
2022/06/28 11:17:34;;;;;;;3.10;1.20;;;28.60;99.90;;;;;;4968404;28;20671;-51
2022/06/28 11:20:07;;;;;;;1.20;1.10;;;29.20;99.90;;;;;;4954760;28;20443;-53
2022/06/28 11:22:40;;;;;;;4.00;1.37;;;29.50;99.90;;;;;;4963362;28;20455;-51
2022/06/28 11:25:08;;;;;;;1.93;1.00;;;29.60;99.90;;;;;;4963403;28;20463;-52
2022/06/28 11:27:34;;;;;;;3.00;1.40;;;28.90;99.90;;;;;;4962379;28;20476;-51
2022/06/28 11:30:00;;;;;;;2.03;1.33;;;28.60;99.90;;;;;;4953279;28;20930;-51
2022/06/28 11:32:33;;;;;;;4.73;1.30;;;28.90;99.90;;;;;;4959548;28;20830;-51
2022/06/28 11:35:11;;;;;;;2.73;1.23;;;29.10;99.90;;;;;;4958409;28;20220;-51
2022/06/28 11:38:01;;;;;;;2.57;1.30;;;29.20;99.90;;;;;;4966196;28;20444;-52
2022/06/28 11:40:29;;;;;;;3.03;1.60;;;29.20;99.90;;;;;;4960126;28;20445;-52
2022/06/28 11:43:18;;;;;;;2.43;1.40;;;29.20;99.90;;;;;;4969476;28;20526;-51
2022/06/28 11:45:46;;;;;;;2.40;1.10;;;29.50;99.90;;;;;;4971788;28;20443;-51
2022/06/28 11:48:17;;;;;;;1.83;1.10;;;29.40;99.90;;;;;;4953912;28;20524;-50
2022/06/28 11:50:51;;;;;;;3.33;1.20;;;29.20;99.90;;;;;;4964537;28;20949;-51
2022/06/28 11:53:17;;;;;;;2.37;1.30;;;29.20;99.90;;;;;;4958324;28;20558;-52
2022/06/28 11:55:44;;;;;;;3.63;1.40;;;29.40;99.90;;;;;;4956361;28;20484;-51
2022/06/28 11:58:25;;;;;;;1.30;1.10;;;29.70;99.90;;;;;;4965849;28;20444;-51
2022/06/28 12:01:03;;;;;;;2.50;0.90;;;29.60;99.90;;;;;;4949964;28;20492;-51
2022/06/28 12:03:29;;;;;;;2.60;1.20;;;29.00;99.90;;;;;;4961932;28;20444;-52
2022/06/28 12:05:57;;;;;;;1.48;1.05;;;28.80;99.90;;;;;;4963341;28;20496;-51
2022/06/28 12:08:45;;;;;;;5.23;1.20;;;29.20;99.90;;;;;;4965287;28;20655;-52
2022/06/28 12:11:33;;;;;;;3.33;1.20;;;29.70;99.90;;;;;;4957998;28;20958;-52
2022/06/28 12:14:00;;;;;;;6.83;1.47;;;29.90;99.90;;;;;;4964464;28;20540;-56
2022/06/28 12:16:29;;;;;;;1.43;1.13;;;30.30;99.90;;;;;;4971129;28;21206;-53
2022/06/28 12:18:55;;;;;;;6.13;1.50;;;31.00;99.90;;;;;;4965329;28;20446;-52
2022/06/28 12:21:21;;;;;;;1.10;1.00;;;31.00;99.90;;;;;;4953063;28;20437;-52
2022/06/28 12:23:48;;;;;;;2.77;1.60;;;31.10;99.90;;;;;;4970991;28;20777;-53
2022/06/28 12:26:13;;;;;;;3.17;1.40;;;31.20;99.90;;;;;;4961637;28;20895;-54
2022/06/28 12:28:39;;;;;;;4.07;1.30;;;30.80;99.90;;;;;;4950415;28;20439;-52
2022/06/28 12:31:05;;;;;;;4.30;1.50;;;30.20;99.90;;;;;;4970142;28;20189;-51
2022/06/28 12:33:30;;;;;;;1.70;1.10;;;30.20;99.90;;;;;;4963586;28;20193;-53
2022/06/28 12:35:56;;;;;;;2.23;1.27;;;30.40;99.90;;;;;;4947592;28;20230;-52
2022/06/28 12:38:21;;;;;;;1.87;1.30;;;30.80;99.90;;;;;;4959204;28;20227;-60
2022/06/28 12:40:47;;;;;;;3.43;1.60;;;30.80;99.90;;;;;;4962643;28;20192;-52
2022/06/28 12:43:13;;;;;;;2.80;1.47;;;31.00;99.90;;;;;;4967159;28;20527;-52
2022/06/28 12:45:39;;;;;;;2.23;1.50;;;31.50;99.90;;;;;;4965391;28;20701;-52
2022/06/28 12:48:05;;;;;;;2.87;1.40;;;31.70;99.90;;;;;;4959489;28;20276;-52
2022/06/28 12:50:31;;;;;;;2.13;1.20;;;31.40;99.90;;;;;;4971642;28;20421;-52
2022/06/28 12:52:57;;;;;;;1.50;1.30;;;31.40;99.90;;;;;;4965313;28;20228;-53
2022/06/28 12:55:23;;;;;;;2.13;1.50;;;31.60;99.90;;;;;;4958677;28;20865;-53